Home PIREPS Pireps

Flight BEL326

  • Submitted By: Serge Morabito
  • Departure Airport: New Dehli Gandhi Intl (VIDP)
  • Arrival Airport: Brussels South (EBCI)
  • Aircraft: B777-300 (OO-YLK)
  • Flight Time: 09.01
  • Date Submitted: 19/03/2017
  • Route: BUTOP M875 JHANG A466 DI J145 REGET DCT LEMOD/K0893F400 A909 KEKAL A87 AZABI R122 UP R120 BUTRI G826 RASAP A279 KUBOK L4 SUTOR A137 DORER L980 SUBIX/N0482F400 UL980 DLE UZ717 EXOBA T886 TOBIV T884 AGENI T855 LNO
  • Status: Accepted
Flight Details
Gross Revenue:
(424 load / € 0.00 per unit
€ 0.00
Fuel Cost:
(107684 fuel used @ 0 / unit)
€ 0.00

Additional Log Information:

View Log

Aircraft Used in flight is B777 (v.196) Ext Cargo - cargolux
12:04 Brakes are On
12:06 Brakes are Released
12:14 Brakes are On
12:14 Brakes are Released
12:14 Brakes are On
12:14 Brakes are Released
12:14 Brakes are On
12:15 Brakes are Released
12:16 You Took off @ 162 Knots and Flaps at Position 5
Departure Weather
VIDP 191100Z 33007KT 3000 DU NSC 29/11 Q1011 NOSIGrn
12:16 Landing Gear Up @ 166 Knots and 770 Feet
15:43 Landing Gear Down @ 268 Knots and 39750 Feet
15:43 Landing Gear Up @ 268 Knots and 39750 Feet
20:29 You exceeded maximum bank angle
20:54 Landing Gear Down @ 165 Knots and 2900 Feet
20:57 You Landed @ 153 Knots and with -250 Vertical Speed
Arrival Weather
EBCI 191920Z 24020KT 9999 BKN035 10/05 Q1011 TEMPO 25015G25KTrn
20:57 Brakes are On
20:57 Brakes are Released
20:57 Brakes are On
20:57 Brakes are Released
20:57 Brakes are On
20:58 Brakes are Released
20:58 Brakes are On
20:58 Brakes are Released
20:58 Brakes are On
20:58 Brakes are Released
20:58 Brakes are On
20:59 Brakes are Released
21:02 Brakes are On
21:02 Brakes are Released
21:04 Brakes are On
21:04 Brakes are Released
21:04 Brakes are On
21:04 Brakes are Released
21:04 Brakes are On
21:04 Brakes are Released
21:04 Brakes are On
21:04 Brakes are Released
21:05 Brakes are On
21:06 Brussels Bel-Track1.0.1.2

Route Map

Corporate About Us Our Team Vacancies Information Fleet Route Network Rules and Regulations Operations Flight Schedules Event Center Tours Partners IVAO Vatsim Acars dev FSCB

fb Users Online No pilots online!
0 Pilot(s) and 89 Guest(s) Online
CMS by phpVMS - Design by Crazycreatives.com - Copyright © 2019 - Brussels Airlines Virtual